Pagina principale
METAR-TAF:

METAR-TAF

Aeroporti :

Béziers, Francia

latitudine: 43-19N, longitudine: 003-21E, altezza: 17 m

Osservazione

Il bollettino è stato emesso 21 minuti fa, alle 19:30 UTC
Vento 12 kt da est
Temperature 13°C
Umidità 94%
Pressione 1025 hPa
Visibilità: 3700 m
Nuvoloso ad un'altezza di 600 ft
Cielo coperto ad un'altezza di 1200 ft
foschia

METAR: LFMU 161930Z AUTO 09012KT 3700 BR BKN006 OVC012 13/12 Q1025 TEMPO 2000 DZ BR OVC003

Ora: 20:51 (19:51 UTC)

Previsione

Il bollettino è stato emesso 5 ore e 51 minuti fa, alle 14:00 UTC
Previsione valida dal 16 alle 15 UTC al 17 alle 15 UTC
Vento 15 kt da est
Visibilità 10 km o più
Cielo coperto ad un'altezza di 1000 ft
Temporaneamente
dal 16 alle 15 UTC al 17 alle 12 UTC
Visibilità: 2000 m
Cielo coperto ad un'altezza di 300 ft
pioviggine, foschia
Evoluzione graduale
dal 17 alle 12 UTC al 17 alle 15 UTC

TAF: LFMU 161400Z 1615/1715 09015KT 9999 OVC010 TEMPO 1615/1712 2000 DZ BR OVC003 BECMG 1712/1715 NSW NSC

Osservazioni e previsioni meteorologiche di più di 4000 aeroporti (messaggi METAR e TAF).

Le stazioni disponibili sono rappresentate dai dischi gialli e rossi sulla carta.

Puntare il mouse per vedere il nome della stazione.

Clicca sopra per visualizzare le osservazioni e previsioni meteorologiche.

Per cambiare la mappa : fare clic sui pulsanti verdi con una croce nera per ingrandire, il pulsante verde con un trattino per diminuire, o sulla freccia verde per le mappe adiacenti.


METAR-TAF: